createdAt,value
2022-09-15T00:06:42.565Z,106.05
2022-09-15T00:21:48.098Z,105.73
2022-09-15T00:36:53.620Z,105.64
2022-09-15T00:52:03.684Z,105.33
2022-09-15T01:07:12.433Z,105.24
2022-09-15T01:22:33.949Z,105.36
2022-09-15T01:37:43.898Z,105.98
2022-09-15T01:52:53.386Z,106.78
2022-09-15T02:08:05.657Z,107.61
2022-09-15T02:23:16.440Z,107.88
2022-09-15T02:38:22.341Z,107.31
2022-09-15T02:53:27.839Z,107.97
2022-09-15T03:08:33.279Z,107.84
2022-09-15T03:23:39.097Z,108.22
2022-09-15T03:38:44.681Z,109.07
2022-09-15T03:53:50.252Z,109.19
2022-09-15T04:08:58.282Z,108.33
2022-09-15T04:24:06.200Z,108.70
2022-09-15T04:39:11.782Z,109.40
2022-09-15T04:54:17.359Z,109.97
2022-09-15T05:09:23.349Z,109.66
2022-09-15T05:24:28.910Z,110.19
2022-09-15T05:39:34.566Z,108.61
2022-09-15T05:54:40.099Z,107.25
2022-09-15T06:09:45.674Z,107.48
2022-09-15T06:24:52.629Z,106.27
2022-09-15T06:39:58.303Z,106.34
2022-09-15T06:55:04.097Z,105.65
2022-09-15T07:10:10.915Z,106.56
2022-09-15T07:25:16.811Z,108.03
2022-09-15T07:40:22.571Z,108.67
2022-09-15T07:55:28.577Z,108.09
2022-09-15T08:10:34.628Z,107.90
2022-09-15T08:25:40.747Z,106.80
2022-09-15T08:40:48.190Z,105.37
2022-09-15T08:55:56.258Z,102.76
2022-09-15T09:11:10.695Z,101.71
2022-09-15T09:26:17.036Z,100.67
2022-09-15T09:41:26.302Z,101.41
2022-09-15T09:56:31.862Z,103.36
2022-09-15T10:11:46.171Z,101.89
2022-09-15T10:26:51.978Z,100.24
2022-09-15T10:42:06.045Z,103.25
2022-09-15T10:57:20.785Z,101.42
2022-09-15T11:12:39.060Z,97.13
2022-09-15T11:27:47.665Z,97.65
2022-09-15T11:42:55.472Z,94.49
2022-09-15T11:58:21.036Z,94.48
2022-09-15T12:13:28.620Z,92.88
2022-09-15T12:28:54.537Z,93.67
2022-09-15T12:44:08.848Z,93.95
2022-09-15T12:59:16.172Z,93.30
2022-09-15T13:14:29.353Z,90.79
2022-09-15T13:29:45.234Z,90.86
2022-09-15T13:45:13.925Z,91.09
2022-09-15T14:00:23.155Z,91.56
2022-09-15T14:15:30.654Z,93.08
2022-09-15T14:30:36.245Z,94.21
2022-09-15T14:45:54.469Z,97.69
2022-09-15T15:01:09.194Z,99.26
2022-09-15T15:16:22.679Z,100.64
2022-09-15T15:31:30.378Z,103.38
2022-09-15T15:46:53.958Z,104.04
2022-09-15T16:02:00.736Z,105.25
2022-09-15T16:17:06.746Z,105.05
2022-09-15T16:32:19.832Z,102.55
2022-09-15T16:47:26.450Z,101.27
2022-09-15T17:02:32.192Z,99.11
2022-09-15T17:17:38.157Z,98.96
2022-09-15T17:32:43.887Z,97.83
2022-09-15T17:47:49.919Z,99.35
2022-09-15T18:02:57.961Z,96.98
2022-09-15T18:18:08.830Z,98.49
2022-09-15T18:33:16.673Z,99.83
2022-09-15T18:48:22.524Z,100.98
2022-09-15T19:03:28.320Z,102.00
2022-09-15T19:18:34.080Z,102.38
2022-09-15T19:33:40.277Z,101.46
2022-09-15T19:48:49.322Z,100.60
2022-09-15T20:19:21.075Z,101.45
2022-09-15T20:34:26.771Z,101.32
2022-09-15T20:49:32.188Z,102.31
2022-09-15T21:04:37.672Z,102.08
2022-09-15T21:19:43.383Z,102.31
2022-09-15T21:34:49.514Z,102.85
2022-09-15T21:49:56.146Z,103.86
2022-09-15T22:05:01.844Z,103.52
2022-09-15T22:20:09.698Z,104.33
2022-09-15T22:35:15.511Z,104.57
2022-09-15T22:50:21.051Z,104.86
2022-09-15T23:05:26.694Z,104.86
2022-09-15T23:20:32.247Z,105.31
2022-09-15T23:35:38.165Z,105.50
2022-09-15T23:50:44.477Z,105.97
